createdAt,value
2018-10-12T00:00:56.399Z,76.35
2018-10-12T00:03:26.824Z,76.52
2018-10-12T00:05:57.869Z,76.11
2018-10-12T00:08:29.075Z,76.41
2018-10-12T00:10:59.804Z,76.42
2018-10-12T00:13:30.791Z,76.66
2018-10-12T00:16:01.448Z,76.55
2018-10-12T00:18:32.217Z,76.69
2018-10-12T00:21:03.051Z,76.57
2018-10-12T00:23:33.585Z,77.03
2018-10-12T00:26:04.748Z,76.79
2018-10-12T00:28:35.672Z,76.40
2018-10-12T00:31:06.401Z,76.35
2018-10-12T00:33:37.011Z,76.57
2018-10-12T00:36:08.130Z,77.19
2018-10-12T00:38:39.090Z,76.94
2018-10-12T00:41:09.740Z,77.24
2018-10-12T00:43:40.580Z,76.98
2018-10-12T00:46:11.420Z,76.81
2018-10-12T00:48:42.233Z,76.70
2018-10-12T00:51:12.972Z,76.89
2018-10-12T00:53:43.633Z,77.16
2018-10-12T00:56:14.427Z,77.15
2018-10-12T00:58:45.175Z,76.99
2018-10-12T01:01:17.727Z,77.37
2018-10-12T01:03:48.936Z,77.51
2018-10-12T01:06:19.808Z,77.51
2018-10-12T01:08:51.071Z,77.55
2018-10-12T01:11:22.144Z,77.78
2018-10-12T01:13:53.393Z,77.57
2018-10-12T01:16:24.425Z,77.62
2018-10-12T01:18:55.232Z,77.32
2018-10-12T01:21:26.378Z,77.83
2018-10-12T01:23:57.429Z,78.02
2018-10-12T01:26:28.414Z,78.62
2018-10-12T01:28:59.394Z,78.62
2018-10-12T01:31:30.143Z,77.87
2018-10-12T01:34:00.959Z,78.56
2018-10-12T01:36:31.715Z,78.73
2018-10-12T01:39:02.321Z,78.25
2018-10-12T01:41:33.088Z,78.26
2018-10-12T01:44:03.891Z,78.83
2018-10-12T01:46:34.723Z,78.51
2018-10-12T01:49:05.564Z,78.60
2018-10-12T01:51:36.612Z,78.96
2018-10-12T01:54:07.538Z,79.04
2018-10-12T01:56:38.504Z,79.08
2018-10-12T01:59:09.107Z,79.32
2018-10-12T02:01:39.710Z,78.97
2018-10-12T02:04:10.287Z,78.63
2018-10-12T02:06:40.944Z,78.83
2018-10-12T02:09:11.531Z,78.73
2018-10-12T02:11:42.165Z,79.50
2018-10-12T02:14:12.747Z,79.47
2018-10-12T02:16:43.580Z,77.38
2018-10-12T02:19:14.852Z,76.72
2018-10-12T02:21:46.250Z,77.92
2018-10-12T02:24:18.718Z,79.03
2018-10-12T02:26:49.667Z,79.68
2018-10-12T02:29:21.734Z,79.46
2018-10-12T02:31:53.986Z,78.64
2018-10-12T02:34:25.515Z,79.01
2018-10-12T02:36:56.829Z,79.35
2018-10-12T02:39:27.547Z,79.24
2018-10-12T02:41:58.252Z,79.01
2018-10-12T02:44:28.647Z,79.42
2018-10-12T02:46:59.667Z,79.45
2018-10-12T02:49:30.416Z,79.44
2018-10-12T02:52:01.268Z,79.08
2018-10-12T02:54:32.311Z,79.15
2018-10-12T02:57:03.214Z,79.74
2018-10-12T02:59:33.992Z,79.62
2018-10-12T03:02:08.003Z,79.71
2018-10-12T03:04:38.736Z,79.62
2018-10-12T03:07:09.450Z,79.81
2018-10-12T03:09:40.195Z,79.83
2018-10-12T03:12:11.035Z,80.04
2018-10-12T03:14:42.692Z,80.10
2018-10-12T03:17:14.055Z,79.86
2018-10-12T03:19:47.388Z,79.98
2018-10-12T03:22:20.139Z,79.58
2018-10-12T03:24:51.056Z,79.80
2018-10-12T03:27:21.923Z,80.03
2018-10-12T03:29:53.399Z,79.52
2018-10-12T03:32:24.173Z,80.27
2018-10-12T03:34:55.079Z,79.97
2018-10-12T03:37:26.093Z,80.05
2018-10-12T03:39:56.768Z,79.77
2018-10-12T03:42:28.104Z,80.16
2018-10-12T03:44:59.239Z,80.45
2018-10-12T03:47:31.735Z,79.80
2018-10-12T03:50:02.999Z,79.44
2018-10-12T03:52:33.946Z,79.71
2018-10-12T03:55:04.904Z,80.05
2018-10-12T03:57:35.908Z,79.68
2018-10-12T04:00:06.818Z,80.25
2018-10-12T04:02:37.870Z,80.43
2018-10-12T04:05:08.795Z,80.02
2018-10-12T04:07:39.439Z,80.15
2018-10-12T04:10:10.294Z,80.20
2018-10-12T04:12:41.325Z,80.30
2018-10-12T04:15:12.171Z,80.20
2018-10-12T04:17:46.167Z,80.29
2018-10-12T04:20:17.311Z,79.69
2018-10-12T04:22:48.623Z,80.01
2018-10-12T04:25:21.731Z,80.01
2018-10-12T04:27:54.442Z,80.31
2018-10-12T04:30:25.360Z,80.72
2018-10-12T04:32:56.211Z,80.54
2018-10-12T04:35:29.059Z,80.44
2018-10-12T04:37:59.897Z,80.30
2018-10-12T04:41:14.996Z,80.17
2018-10-12T04:43:46.882Z,80.32
2018-10-12T04:46:22.471Z,80.43
2018-10-12T04:48:53.816Z,80.49
2018-10-12T04:51:36.467Z,80.24
2018-10-12T04:54:08.010Z,79.84
2018-10-12T04:56:39.021Z,80.05
2018-10-12T04:59:09.650Z,79.97
2018-10-12T05:01:40.304Z,80.52
2018-10-12T05:04:11.070Z,80.58
2018-10-12T05:06:41.478Z,80.54
2018-10-12T05:09:13.372Z,79.84
2018-10-12T05:11:44.635Z,79.82
2018-10-12T05:14:15.247Z,80.41
2018-10-12T05:16:48.166Z,80.05
2018-10-12T05:19:22.383Z,80.80
2018-10-12T05:21:53.188Z,81.03
2018-10-12T05:24:24.744Z,80.85
2018-10-12T05:26:57.116Z,80.30
2018-10-12T05:29:27.765Z,80.41
2018-10-12T05:31:58.562Z,80.16
2018-10-12T05:34:29.167Z,79.85
2018-10-12T05:36:59.760Z,80.54
2018-10-12T05:39:30.444Z,80.63
2018-10-12T05:42:01.781Z,80.30
2018-10-12T05:44:34.550Z,80.09
2018-10-12T05:47:05.347Z,80.08
2018-10-12T05:49:53.602Z,80.42
2018-10-12T05:52:30.256Z,80.48
2018-10-12T05:55:02.740Z,80.46
2018-10-12T05:57:40.112Z,80.46
2018-10-12T06:00:11.719Z,80.65
2018-10-12T06:02:42.379Z,80.08
2018-10-12T06:05:12.961Z,79.85
2018-10-12T06:07:43.618Z,79.79
2018-10-12T06:10:14.344Z,79.38
2018-10-12T06:12:45.328Z,78.73
2018-10-12T06:15:16.206Z,78.42
2018-10-12T06:17:50.813Z,78.42
2018-10-12T06:20:26.071Z,77.85
2018-10-12T06:22:58.801Z,77.72
2018-10-12T06:25:29.693Z,77.19
2018-10-12T06:28:00.784Z,76.88
2018-10-12T06:30:36.451Z,76.09
2018-10-12T06:33:07.436Z,75.39
2018-10-12T06:35:42.461Z,75.61
2018-10-12T06:38:13.070Z,74.88
2018-10-12T06:40:45.506Z,74.84
2018-10-12T06:43:16.299Z,74.48
2018-10-12T06:45:47.562Z,73.54
2018-10-12T06:48:18.323Z,72.82
2018-10-12T06:50:48.955Z,73.50
2018-10-12T06:53:20.875Z,72.77
2018-10-12T06:55:51.540Z,72.23
2018-10-12T06:58:22.283Z,72.18
2018-10-12T07:00:54.807Z,72.00
2018-10-12T07:03:26.274Z,71.50
2018-10-12T07:05:57.032Z,71.84
2018-10-12T07:08:29.255Z,71.48
2018-10-12T07:11:03.965Z,69.70
2018-10-12T07:13:34.837Z,69.48
2018-10-12T07:16:05.658Z,69.24
2018-10-12T07:18:36.607Z,70.05
2018-10-12T07:21:07.432Z,69.32
2018-10-12T07:23:38.280Z,69.42
2018-10-12T07:26:09.112Z,68.38
2018-10-12T07:28:39.926Z,69.19
2018-10-12T07:31:12.062Z,67.23
2018-10-12T07:33:42.794Z,67.25
2018-10-12T07:36:13.424Z,67.48
2018-10-12T07:38:44.140Z,67.47
2018-10-12T07:41:15.170Z,66.16
2018-10-12T07:43:45.873Z,66.76
2018-10-12T07:46:17.525Z,66.69
2018-10-12T07:48:48.759Z,66.55
2018-10-12T07:51:20.035Z,65.92
2018-10-12T07:53:50.705Z,65.37
2018-10-12T07:56:21.740Z,64.56
2018-10-12T07:58:52.456Z,64.34
2018-10-12T08:01:23.850Z,64.85
2018-10-12T08:03:55.472Z,64.12
2018-10-12T08:06:26.882Z,64.25
2018-10-12T08:09:01.236Z,63.89
2018-10-12T08:11:32.307Z,63.61
2018-10-12T08:14:03.267Z,62.69
2018-10-12T08:16:34.114Z,62.42
2018-10-12T08:19:05.036Z,61.79
2018-10-12T08:21:35.692Z,61.88
2018-10-12T08:24:06.748Z,61.49
2018-10-12T08:26:38.001Z,62.00
2018-10-12T08:29:12.306Z,62.43
2018-10-12T08:31:43.406Z,61.78
2018-10-12T08:34:14.568Z,61.03
2018-10-12T08:36:45.405Z,61.47
2018-10-12T08:39:16.184Z,59.16
2018-10-12T08:41:46.997Z,58.92
2018-10-12T08:44:17.929Z,58.91
2018-10-12T08:46:49.083Z,57.70
2018-10-12T08:49:19.467Z,56.99
2018-10-12T08:51:50.477Z,55.72
2018-10-12T08:54:23.154Z,55.42
2018-10-12T08:56:58.230Z,54.62
2018-10-12T08:59:29.294Z,54.56
2018-10-12T09:02:02.013Z,54.92
2018-10-12T09:04:32.700Z,54.04
2018-10-12T09:07:04.040Z,53.49
2018-10-12T09:09:34.652Z,53.16
2018-10-12T09:12:06.835Z,53.16
2018-10-12T09:14:39.595Z,52.94
2018-10-12T09:17:10.493Z,52.85
2018-10-12T09:19:41.144Z,52.08
2018-10-12T09:22:11.760Z,51.69
2018-10-12T09:24:42.560Z,52.03
2018-10-12T09:27:13.183Z,50.98
2018-10-12T09:29:43.936Z,51.36
2018-10-12T09:32:15.988Z,50.86
2018-10-12T09:34:47.567Z,51.89
2018-10-12T09:37:19.094Z,50.13
2018-10-12T09:39:50.342Z,50.40
2018-10-12T09:42:24.660Z,50.91
2018-10-12T09:44:55.606Z,50.50
2018-10-12T09:47:28.353Z,50.68
2018-10-12T09:49:59.097Z,50.92
2018-10-12T09:52:30.136Z,50.53
2018-10-12T09:55:01.691Z,50.61
2018-10-12T09:57:37.755Z,50.15
2018-10-12T10:00:12.734Z,49.90
2018-10-12T10:02:48.576Z,50.56
2018-10-12T10:05:19.378Z,50.48
2018-10-12T10:07:50.210Z,50.27
2018-10-12T10:10:21.008Z,49.67
2018-10-12T10:12:51.538Z,49.71
2018-10-12T10:15:22.257Z,50.10
2018-10-12T10:17:57.409Z,50.58
2018-10-12T10:20:28.324Z,49.71
2018-10-12T10:22:59.440Z,50.09
2018-10-12T10:25:30.246Z,49.83
2018-10-12T10:28:00.780Z,49.45
2018-10-12T10:30:31.399Z,49.83
2018-10-12T10:33:02.134Z,49.04
2018-10-12T10:35:32.861Z,48.02
2018-10-12T10:38:05.184Z,48.78
2018-10-12T10:40:35.995Z,49.01
2018-10-12T10:43:06.907Z,48.55
2018-10-12T10:45:37.955Z,48.89
2018-10-12T10:48:08.644Z,49.64
2018-10-12T10:50:39.308Z,49.57
2018-10-12T10:53:10.418Z,48.86
2018-10-12T10:55:41.087Z,48.83
2018-10-12T10:58:13.290Z,48.79
2018-10-12T11:00:44.024Z,49.07
2018-10-12T11:03:14.829Z,48.92
2018-10-12T11:05:45.316Z,48.75
2018-10-12T11:08:16.087Z,49.23
2018-10-12T11:10:46.939Z,48.32
2018-10-12T11:13:17.335Z,49.26
2018-10-12T11:15:48.062Z,48.85
2018-10-12T11:18:19.678Z,48.62
2018-10-12T11:20:51.611Z,48.41
2018-10-12T11:23:22.521Z,48.54
2018-10-12T11:25:53.948Z,48.43
2018-10-12T11:28:27.984Z,47.89
2018-10-12T11:30:59.055Z,48.63
2018-10-12T11:33:34.419Z,48.19
2018-10-12T11:36:05.324Z,47.39
2018-10-12T11:38:36.270Z,47.31
2018-10-12T11:41:08.439Z,48.17
2018-10-12T11:43:39.693Z,47.56
2018-10-12T11:46:10.592Z,46.13
2018-10-12T11:48:41.167Z,47.21
2018-10-12T11:51:12.075Z,46.60
2018-10-12T11:53:42.903Z,47.19
2018-10-12T11:56:13.540Z,48.25
2018-10-12T11:58:43.906Z,46.57
2018-10-12T12:01:14.583Z,47.19
2018-10-12T12:03:45.344Z,47.36
2018-10-12T12:06:16.051Z,47.31
2018-10-12T12:08:46.643Z,46.72
2018-10-12T12:11:17.626Z,46.42
2018-10-12T12:13:48.412Z,46.85
2018-10-12T12:16:19.543Z,45.93
2018-10-12T12:18:50.259Z,46.11
2018-10-12T12:21:21.600Z,46.33
2018-10-12T12:23:52.376Z,45.45
2018-10-12T12:26:23.156Z,46.55
2018-10-12T12:28:54.005Z,46.62
2018-10-12T12:31:24.643Z,45.80
2018-10-12T12:33:57.035Z,45.78
2018-10-12T12:36:29.410Z,45.39
2018-10-12T12:39:01.952Z,45.31
2018-10-12T12:41:33.272Z,44.65
2018-10-12T12:44:04.750Z,44.16
2018-10-12T12:46:36.160Z,44.44
2018-10-12T12:49:07.563Z,44.37
2018-10-12T12:51:38.088Z,44.56
2018-10-12T12:54:10.618Z,44.39
2018-10-12T12:56:41.416Z,44.13
2018-10-12T12:59:12.093Z,41.67
2018-10-12T13:01:42.964Z,42.33
2018-10-12T13:04:13.885Z,43.54
2018-10-12T13:06:44.479Z,44.65
2018-10-12T13:09:15.519Z,44.47
2018-10-12T13:11:46.095Z,43.95
2018-10-12T13:14:16.839Z,44.07
2018-10-12T13:16:47.461Z,44.58
2018-10-12T13:19:18.319Z,45.43
2018-10-12T13:21:49.208Z,44.70
2018-10-12T13:24:19.956Z,45.34
2018-10-12T13:26:50.800Z,44.13
2018-10-12T13:29:21.579Z,44.15
2018-10-12T13:31:52.380Z,43.47
2018-10-12T13:34:23.523Z,43.23
2018-10-12T13:36:54.215Z,43.92
2018-10-12T13:39:24.838Z,42.97
2018-10-12T13:41:56.089Z,43.52
2018-10-12T13:44:31.250Z,43.09
2018-10-12T13:47:02.092Z,43.01
2018-10-12T13:49:33.132Z,43.18
2018-10-12T13:52:03.842Z,43.44
2018-10-12T13:54:34.508Z,42.73
2018-10-12T13:57:05.793Z,42.43
2018-10-12T13:59:36.736Z,50.20
2018-10-12T14:02:08.899Z,48.91
2018-10-12T14:04:39.692Z,47.30
2018-10-12T14:07:13.003Z,46.49
2018-10-12T14:09:43.996Z,45.91
2018-10-12T14:12:14.638Z,43.93
2018-10-12T14:14:45.287Z,45.36
2018-10-12T14:17:19.380Z,43.17
2018-10-12T14:19:50.131Z,44.17
2018-10-12T14:22:24.987Z,42.94
2018-10-12T14:24:56.745Z,41.96
2018-10-12T14:27:27.552Z,43.27
2018-10-12T14:29:58.387Z,44.20
2018-10-12T14:32:28.785Z,43.69
2018-10-12T14:34:59.584Z,44.04
2018-10-12T14:37:30.163Z,44.13
2018-10-12T14:40:01.016Z,43.74
2018-10-12T14:42:31.623Z,42.99
2018-10-12T14:45:02.385Z,42.72
2018-10-12T14:47:33.530Z,43.00
2018-10-12T14:50:04.488Z,43.07
2018-10-12T14:52:35.055Z,43.31
2018-10-12T14:55:05.732Z,42.94
2018-10-12T14:57:36.686Z,43.32
2018-10-12T15:00:09.328Z,43.37
2018-10-12T15:02:39.908Z,43.14
2018-10-12T15:05:10.505Z,43.96
2018-10-12T15:07:41.100Z,43.43
2018-10-12T15:10:11.656Z,43.53
2018-10-12T15:12:42.248Z,43.82
2018-10-12T15:15:19.053Z,44.28
2018-10-12T15:17:50.814Z,44.45
2018-10-12T15:20:21.896Z,43.82
2018-10-12T15:22:52.559Z,44.26
2018-10-12T15:25:23.249Z,43.69
2018-10-12T15:27:54.503Z,43.49
2018-10-12T15:30:25.077Z,44.29
2018-10-12T15:32:55.697Z,44.64
2018-10-12T15:35:26.580Z,44.43
2018-10-12T15:37:57.455Z,45.20
2018-10-12T15:40:28.104Z,44.76
2018-10-12T15:42:59.144Z,45.20
2018-10-12T15:45:30.133Z,45.34
2018-10-12T15:48:00.727Z,45.01
2018-10-12T15:50:31.371Z,44.93
2018-10-12T15:53:02.349Z,45.85
2018-10-12T15:55:32.993Z,46.06
2018-10-12T15:58:03.636Z,46.38
2018-10-12T16:00:34.223Z,46.50
2018-10-12T16:03:05.214Z,46.24
2018-10-12T16:05:35.839Z,46.41
2018-10-12T16:08:06.578Z,47.13
2018-10-12T16:10:37.175Z,47.07
2018-10-12T16:13:07.788Z,47.03
2018-10-12T16:15:38.392Z,47.27
2018-10-12T16:18:09.007Z,47.51
2018-10-12T16:20:39.857Z,48.01
2018-10-12T16:23:10.478Z,47.69
2018-10-12T16:26:00.768Z,47.72
2018-10-12T16:28:31.363Z,48.88
2018-10-12T16:31:02.065Z,49.12
2018-10-12T16:33:32.660Z,49.07
2018-10-12T16:36:03.292Z,49.09
2018-10-12T16:38:34.093Z,48.95
2018-10-12T16:41:04.731Z,49.56
2018-10-12T16:43:35.517Z,49.20
2018-10-12T16:46:06.376Z,50.77
2018-10-12T16:48:36.996Z,51.25
2018-10-12T16:51:07.975Z,51.26
2018-10-12T16:53:38.617Z,52.03
2018-10-12T16:56:09.248Z,52.09
2018-10-12T16:58:39.956Z,52.36
2018-10-12T17:01:10.608Z,52.24
2018-10-12T17:03:41.207Z,52.63
2018-10-12T17:06:11.788Z,52.40
2018-10-12T17:08:42.475Z,52.83
2018-10-12T17:11:13.104Z,53.13
2018-10-12T17:13:43.755Z,54.51
2018-10-12T17:16:14.364Z,54.42
2018-10-12T17:18:44.985Z,54.85
2018-10-12T17:21:15.770Z,56.05
2018-10-12T17:23:46.363Z,55.87
2018-10-12T17:26:17.241Z,56.40
2018-10-12T17:28:48.097Z,56.83
2018-10-12T17:31:18.753Z,57.63
2018-10-12T17:33:49.348Z,57.88
2018-10-12T17:36:20.005Z,57.69
2018-10-12T17:38:50.618Z,57.88
2018-10-12T17:41:21.683Z,58.18
2018-10-12T17:43:52.259Z,58.92
2018-10-12T17:46:22.842Z,59.38
2018-10-12T17:48:53.432Z,58.83
2018-10-12T17:51:24.040Z,59.58
2018-10-12T17:53:54.688Z,60.36
2018-10-12T17:56:25.491Z,60.51
2018-10-12T17:58:56.363Z,60.44
2018-10-12T18:01:26.984Z,60.45
2018-10-12T18:03:57.606Z,60.00
2018-10-12T18:06:28.571Z,60.42
2018-10-12T18:08:59.210Z,61.45
2018-10-12T18:11:29.994Z,61.61
2018-10-12T18:14:04.009Z,61.69
2018-10-12T18:16:34.640Z,62.10
2018-10-12T18:19:06.124Z,62.09
2018-10-12T18:21:36.734Z,61.89
2018-10-12T18:24:07.920Z,62.31
2018-10-12T18:26:38.555Z,62.30
2018-10-12T18:29:09.452Z,62.47
2018-10-12T18:31:40.284Z,62.73
2018-10-12T18:34:11.332Z,63.01
2018-10-12T18:36:41.988Z,63.54
2018-10-12T18:39:12.811Z,63.81
2018-10-12T18:41:44.133Z,62.90
2018-10-12T18:44:14.739Z,63.21
2018-10-12T18:46:45.443Z,63.85
2018-10-12T18:49:16.127Z,64.03
2018-10-12T18:51:47.364Z,63.65
2018-10-12T18:54:17.937Z,63.89
2018-10-12T18:56:49.065Z,63.43
2018-10-12T18:59:19.681Z,64.15
2018-10-12T19:01:50.299Z,63.96
2018-10-12T19:04:20.903Z,64.80
2018-10-12T19:06:52.091Z,64.78
2018-10-12T19:09:22.708Z,64.72
2018-10-12T19:11:53.336Z,64.70
2018-10-12T19:14:24.046Z,65.40
2018-10-12T19:16:54.678Z,64.95
2018-10-12T19:19:25.344Z,65.64
2018-10-12T19:21:56.140Z,65.22
2018-10-12T19:24:26.813Z,65.59
2018-10-12T19:26:57.464Z,65.97
2018-10-12T19:29:28.181Z,66.35
2018-10-12T19:31:58.957Z,66.35
2018-10-12T19:34:29.735Z,66.81
2018-10-12T19:37:00.382Z,66.81
2018-10-12T19:39:31.042Z,66.51
2018-10-12T19:42:01.633Z,66.91
2018-10-12T19:44:32.298Z,67.08
2018-10-12T19:47:02.938Z,66.63
2018-10-12T19:49:33.986Z,66.99
2018-10-12T19:52:04.298Z,67.19
2018-10-12T19:54:34.916Z,67.33
2018-10-12T19:57:05.630Z,67.18
2018-10-12T19:59:36.234Z,68.00
2018-10-12T20:02:06.902Z,67.32
2018-10-12T20:04:37.509Z,67.78
2018-10-12T20:07:08.118Z,67.20
2018-10-12T20:09:38.744Z,68.08
2018-10-12T20:12:09.433Z,67.84
2018-10-12T20:14:40.028Z,67.89
2018-10-12T20:17:10.833Z,68.72
2018-10-12T20:19:41.427Z,68.66
2018-10-12T20:22:12.468Z,68.67
2018-10-12T20:24:43.104Z,68.74
2018-10-12T20:27:13.726Z,69.48
2018-10-12T20:29:44.327Z,69.07
2018-10-12T20:32:15.174Z,69.60
2018-10-12T20:34:45.791Z,69.59
2018-10-12T20:37:16.615Z,69.63
2018-10-12T20:39:47.296Z,69.35
2018-10-12T20:42:17.939Z,70.14
2018-10-12T20:44:48.784Z,70.13
2018-10-12T20:47:19.395Z,70.13
2018-10-12T20:49:50.058Z,70.02
2018-10-12T20:52:20.781Z,70.47
2018-10-12T20:54:51.464Z,70.26
2018-10-12T20:57:22.056Z,70.74
2018-10-12T20:59:52.736Z,70.73
2018-10-12T21:02:23.354Z,70.54
2018-10-12T21:04:54.455Z,70.68
2018-10-12T21:07:25.119Z,70.93
2018-10-12T21:09:55.785Z,70.75
2018-10-12T21:12:26.377Z,71.14
2018-10-12T21:14:57.035Z,71.06
2018-10-12T21:17:27.689Z,71.39
2018-10-12T21:19:58.348Z,71.54
2018-10-12T21:22:29.063Z,71.61
2018-10-12T21:24:59.653Z,71.54
2018-10-12T21:27:30.684Z,71.41
2018-10-12T21:30:01.401Z,71.46
2018-10-12T21:32:32.004Z,71.83
2018-10-12T21:35:02.618Z,71.55
2018-10-12T21:37:33.287Z,71.73
2018-10-12T21:40:03.888Z,71.96
2018-10-12T21:42:34.543Z,72.18
2018-10-12T21:45:05.165Z,72.66
2018-10-12T21:47:36.023Z,72.60
2018-10-12T21:50:07.303Z,72.68
2018-10-12T21:52:37.956Z,72.57
2018-10-12T21:55:08.682Z,72.30
2018-10-12T21:57:39.299Z,72.77
2018-10-12T22:00:10.621Z,73.15
2018-10-12T22:02:41.280Z,73.04
2018-10-12T22:05:12.007Z,73.18
2018-10-12T22:07:42.647Z,72.99
2018-10-12T22:10:13.271Z,73.27
2018-10-12T22:12:43.884Z,73.22
2018-10-12T22:15:14.730Z,73.32
2018-10-12T22:17:45.365Z,73.48
2018-10-12T22:20:16.016Z,73.63
2018-10-12T22:22:46.608Z,73.91
2018-10-12T22:25:17.198Z,73.72
2018-10-12T22:27:47.823Z,73.60
2018-10-12T22:30:18.448Z,73.83
2018-10-12T22:32:49.042Z,74.23
2018-10-12T22:35:19.698Z,73.92
2018-10-12T22:37:50.312Z,74.24
2018-10-12T22:40:21.183Z,74.07
2018-10-12T22:42:51.820Z,74.00
2018-10-12T22:45:22.736Z,74.25
2018-10-12T22:47:53.384Z,74.48
2018-10-12T22:50:24.017Z,74.46
2018-10-12T22:52:54.643Z,74.79
2018-10-12T22:55:25.239Z,74.72
2018-10-12T22:58:00.605Z,74.39
2018-10-12T23:00:32.721Z,74.96
2018-10-12T23:03:03.407Z,75.09
2018-10-12T23:05:33.988Z,75.10
2018-10-12T23:08:04.610Z,75.26
2018-10-12T23:10:34.941Z,74.96
2018-10-12T23:13:05.785Z,75.01
2018-10-12T23:15:38.105Z,75.24
2018-10-12T23:18:09.075Z,75.24
2018-10-12T23:20:39.626Z,75.40
2018-10-12T23:23:10.225Z,75.52
2018-10-12T23:25:40.809Z,75.52
2018-10-12T23:28:11.375Z,75.36
2018-10-12T23:30:41.973Z,75.54
2018-10-12T23:33:29.253Z,75.45
2018-10-12T23:35:59.860Z,75.75
2018-10-12T23:38:30.400Z,75.80
2018-10-12T23:41:01.004Z,76.16
2018-10-12T23:43:31.597Z,75.76
2018-10-12T23:46:02.227Z,76.07
2018-10-12T23:48:32.841Z,76.16
2018-10-12T23:51:03.461Z,76.40
2018-10-12T23:53:34.033Z,76.51
2018-10-12T23:56:04.773Z,76.44
2018-10-12T23:58:35.502Z,76.96
